Time;durP1;ratioP1;P1;durP2;ratioP2;P2;SDS_P1;SDS_P2;PMS_P1;PMS_P2;Temp;Humidity;BMP_temperature;BMP_pressure;BME280_temperature;BME280_humidity;BME280_pressure;Samples;Min_cycle;Max_cycle;Signal;HPM_P1;HPM_P2
2021/07/21 00:01:19;;;;;;;4.78;3.40;;;26.40;96.70;;;;;;5042774;28;20064;-74
2021/07/21 00:03:49;;;;;;;6.60;3.28;;;26.50;96.70;;;;;;5044812;28;20139;-75
2021/07/21 00:06:19;;;;;;;4.53;3.33;;;26.40;96.70;;;;;;5060839;28;20033;-75
2021/07/21 00:08:50;;;;;;;6.18;3.60;;;26.30;96.70;;;;;;5045242;28;20137;-75
2021/07/21 00:14:19;;;;;;;4.85;3.22;;;26.30;96.70;;;;;;5060989;28;20519;-75
2021/07/21 00:17:37;;;;;;;5.95;3.17;;;26.30;96.70;;;;;;5044724;28;20502;-75
2021/07/21 00:22:27;;;;;;;7.78;3.38;;;26.10;96.70;;;;;;5059814;28;20491;-75
2021/07/21 00:24:57;;;;;;;4.22;3.17;;;26.20;96.70;;;;;;5045253;28;20044;-74
2021/07/21 00:27:27;;;;;;;6.65;3.58;;;26.20;96.70;;;;;;5026049;28;20135;-75
2021/07/21 00:29:55;;;;;;;8.35;3.50;;;26.10;96.70;;;;;;5062320;28;20041;-74
2021/07/21 00:32:53;;;;;;;5.10;3.38;;;26.10;96.70;;;;;;5040489;28;20053;-74
2021/07/21 00:35:22;;;;;;;7.43;3.33;;;26.00;96.70;;;;;;5058623;28;20224;-74
2021/07/21 00:37:50;;;;;;;6.38;3.50;;;26.00;96.70;;;;;;5036817;28;20501;-74
2021/07/21 00:40:19;;;;;;;5.53;3.45;;;25.90;96.70;;;;;;5027240;28;20048;-75
2021/07/21 00:43:28;;;;;;;6.68;3.42;;;25.90;96.70;;;;;;5062814;28;20044;-74
2021/07/21 00:45:57;;;;;;;6.50;3.60;;;25.70;96.70;;;;;;5022446;28;20044;-74
2021/07/21 00:48:41;;;;;;;5.95;3.33;;;25.60;96.70;;;;;;5060732;28;20135;-74
2021/07/21 00:51:10;;;;;;;6.05;3.40;;;25.70;96.70;;;;;;5055413;28;20069;-75
2021/07/21 00:53:39;;;;;;;8.15;3.28;;;25.70;96.70;;;;;;5061583;28;20091;-75
2021/07/21 00:56:14;;;;;;;6.90;3.28;;;25.70;96.70;;;;;;5042953;28;20047;-75
2021/07/21 00:58:47;;;;;;;5.22;3.08;;;25.70;96.70;;;;;;5046315;28;20556;-75
2021/07/21 01:01:18;;;;;;;4.30;3.00;;;25.60;96.70;;;;;;5043359;28;20094;-73
2021/07/21 01:03:51;;;;;;;5.70;3.10;;;25.60;96.70;;;;;;5027631;28;20068;-73
2021/07/21 01:06:24;;;;;;;5.07;3.22;;;25.60;96.70;;;;;;5039386;28;20072;-73
2021/07/21 01:09:45;;;;;;;5.28;3.70;;;25.50;96.70;;;;;;5044665;28;20049;-73
2021/07/21 01:12:21;;;;;;;6.15;3.58;;;25.50;96.70;;;;;;5044836;28;20037;-73
2021/07/21 01:15:17;;;;;;;5.30;3.03;;;25.50;96.70;;;;;;5041522;28;20468;-73
2021/07/21 01:17:52;;;;;;;4.90;3.13;;;25.50;96.70;;;;;;5044045;28;20055;-73
2021/07/21 01:20:51;;;;;;;4.70;3.20;;;25.60;96.70;;;;;;5057954;28;20327;-73
2021/07/21 01:24:05;;;;;;;6.95;3.00;;;25.50;96.70;;;;;;5028071;28;20052;-74
2021/07/21 01:26:42;;;;;;;4.10;2.85;;;25.40;96.70;;;;;;4985776;28;20524;-73
2021/07/21 01:29:19;;;;;;;4.80;3.15;;;25.40;96.70;;;;;;5040280;28;20215;-73
2021/07/21 01:31:50;;;;;;;6.10;3.28;;;25.40;96.70;;;;;;5055231;28;20451;-73
2021/07/21 01:34:22;;;;;;;5.47;3.50;;;25.40;96.70;;;;;;5043657;28;20055;-73
2021/07/21 01:36:58;;;;;;;5.53;3.40;;;25.30;96.70;;;;;;5044011;28;20063;-73
2021/07/21 01:39:31;;;;;;;4.68;3.15;;;25.20;96.70;;;;;;5045272;28;20037;-73
2021/07/21 01:42:03;;;;;;;6.35;3.25;;;25.20;96.70;;;;;;5039860;28;20068;-73
2021/07/21 01:44:37;;;;;;;4.25;3.10;;;25.20;96.70;;;;;;5035259;28;20140;-73
2021/07/21 01:47:06;;;;;;;5.47;3.45;;;25.20;96.70;;;;;;5026107;28;20051;-73
2021/07/21 01:49:39;;;;;;;4.20;3.03;;;25.10;96.70;;;;;;5040876;28;20039;-73
2021/07/21 01:52:13;;;;;;;5.65;3.17;;;25.10;96.70;;;;;;5043019;28;20122;-72
2021/07/21 01:54:43;;;;;;;6.50;3.05;;;25.00;96.70;;;;;;5062163;28;20045;-73
2021/07/21 01:57:18;;;;;;;7.15;3.28;;;25.00;96.70;;;;;;5046235;28;20040;-73
2021/07/21 02:00:07;;;;;;;4.95;3.10;;;24.90;96.70;;;;;;5041781;28;20036;-73
2021/07/21 02:02:49;;;;;;;6.72;3.38;;;24.90;96.70;;;;;;5058257;28;20047;-73
2021/07/21 02:05:32;;;;;;;9.15;3.55;;;24.80;96.70;;;;;;5033129;28;20131;-73
2021/07/21 02:08:05;;;;;;;7.18;3.05;;;24.70;96.70;;;;;;5061121;28;20079;-72
2021/07/21 02:10:36;;;;;;;4.50;3.13;;;24.80;96.70;;;;;;5062783;28;20482;-73
2021/07/21 02:13:13;;;;;;;7.78;2.85;;;24.70;96.70;;;;;;5049226;28;20568;-73
2021/07/21 02:16:09;;;;;;;8.68;3.65;;;24.80;96.70;;;;;;5063111;28;20056;-73
2021/07/21 02:18:41;;;;;;;6.80;3.38;;;24.80;96.70;;;;;;5040617;28;20053;-73
2021/07/21 02:21:11;;;;;;;12.57;4.13;;;24.80;96.70;;;;;;5039775;28;20038;-74
2021/07/21 02:23:42;;;;;;;9.25;4.35;;;24.70;96.70;;;;;;5056926;28;20250;-73
2021/07/21 02:26:33;;;;;;;7.32;3.40;;;24.70;96.70;;;;;;5041542;28;20411;-73
2021/07/21 02:29:05;;;;;;;8.13;3.50;;;24.70;96.70;;;;;;5042350;28;20143;-73
2021/07/21 02:32:00;;;;;;;7.18;3.60;;;24.60;96.70;;;;;;5038627;28;20109;-73
2021/07/21 02:34:31;;;;;;;5.63;3.20;;;24.50;96.70;;;;;;5026049;28;20396;-73
2021/07/21 02:37:04;;;;;;;7.88;3.42;;;24.50;96.70;;;;;;5042213;28;20211;-73
2021/07/21 02:39:46;;;;;;;5.90;3.55;;;24.50;96.70;;;;;;5060204;28;20041;-72
2021/07/21 02:42:17;;;;;;;5.97;3.63;;;24.50;96.70;;;;;;5040242;28;20518;-72
2021/07/21 02:44:50;;;;;;;5.95;3.60;;;24.50;96.70;;;;;;5033300;28;20160;-72
2021/07/21 02:47:23;;;;;;;7.20;3.70;;;24.40;96.70;;;;;;5038272;28;20047;-73
2021/07/21 02:49:58;;;;;;;7.60;3.85;;;24.30;96.70;;;;;;5042844;28;20048;-73
2021/07/21 02:52:38;;;;;;;10.02;5.38;;;24.30;96.70;;;;;;5041033;28;20572;-72
2021/07/21 02:55:31;;;;;;;6.47;4.07;;;24.40;96.70;;;;;;5046459;28;20040;-72
2021/07/21 02:58:09;;;;;;;7.40;4.53;;;24.30;96.70;;;;;;5040412;28;20037;-73
2021/07/21 03:00:44;;;;;;;11.23;6.25;;;24.30;96.70;;;;;;5042321;28;20049;-73
2021/07/21 03:03:21;;;;;;;;;;;24.30;96.70;;;;;;5046606;28;20483;-72
2021/07/21 03:05:56;;;;;;;40.72;22.30;;;24.30;96.70;;;;;;5040110;28;20638;-73
2021/07/21 03:08:42;;;;;;;49.65;25.48;;;24.30;96.70;;;;;;5036912;28;20402;-73
2021/07/21 03:11:24;;;;;;;46.53;25.80;;;24.30;96.70;;;;;;5045498;28;20037;-72
2021/07/21 03:13:58;;;;;;;47.78;25.65;;;24.20;96.70;;;;;;5038994;28;20040;-73
2021/07/21 03:16:44;;;;;;;65.55;36.00;;;24.20;96.70;;;;;;5026931;28;20110;-72
2021/07/21 03:19:33;;;;;;;58.33;35.33;;;24.20;96.70;;;;;;5033896;28;20387;-72
2021/07/21 03:22:08;;;;;;;54.45;35.10;;;24.10;96.70;;;;;;5045426;28;20119;-73
2021/07/21 03:24:52;;;;;;;47.83;29.80;;;24.10;96.70;;;;;;5040192;28;20402;-72
2021/07/21 03:27:49;;;;;;;44.15;27.35;;;24.10;96.70;;;;;;5035320;28;20033;-72
2021/07/21 03:30:31;;;;;;;36.10;22.05;;;24.20;96.70;;;;;;5041174;28;20415;-73
2021/07/21 03:33:11;;;;;;;21.00;10.98;;;24.20;96.70;;;;;;5034645;28;20055;-73
2021/07/21 03:35:54;;;;;;;15.65;9.07;;;23.90;96.70;;;;;;5052383;28;20052;-72
2021/07/21 03:38:50;;;;;;;9.27;4.90;;;24.00;96.70;;;;;;5034299;28;20049;-72
2021/07/21 03:41:40;;;;;;;6.68;3.95;;;24.10;96.70;;;;;;5046115;28;20534;-73
2021/07/21 03:44:23;;;;;;;7.43;4.07;;;24.20;96.70;;;;;;5040668;28;20045;-73
2021/07/21 03:47:04;;;;;;;6.82;3.67;;;24.10;96.70;;;;;;5028697;28;20072;-75
2021/07/21 03:49:40;;;;;;;6.75;3.13;;;24.10;96.70;;;;;;5038137;28;20051;-73
2021/07/21 03:52:26;;;;;;;5.67;3.10;;;24.00;96.70;;;;;;5040256;28;20159;-72
2021/07/21 03:55:10;;;;;;;6.60;3.35;;;24.00;96.70;;;;;;5041020;28;20039;-72
2021/07/21 03:58:02;;;;;;;7.18;3.15;;;24.10;96.70;;;;;;5024379;28;20064;-73
2021/07/21 04:00:41;;;;;;;7.03;3.17;;;24.10;96.70;;;;;;5037784;28;20045;-73
2021/07/21 04:03:16;;;;;;;7.20;3.60;;;24.00;96.70;;;;;;5043826;28;20064;-72
2021/07/21 04:05:55;;;;;;;5.57;3.20;;;24.10;96.70;;;;;;5039606;28;20124;-73
2021/07/21 04:08:30;;;;;;;8.02;3.30;;;24.00;96.70;;;;;;5039806;28;20132;-73
2021/07/21 04:11:00;;;;;;;7.10;3.15;;;24.10;96.70;;;;;;5042264;28;20495;-72
2021/07/21 04:13:34;;;;;;;7.10;3.03;;;24.10;96.70;;;;;;5044574;28;20051;-72
2021/07/21 04:16:31;;;;;;;7.68;3.10;;;23.90;96.70;;;;;;5041703;28;20062;-73
2021/07/21 04:19:02;;;;;;;4.95;3.50;;;23.90;96.70;;;;;;5061848;28;20060;-73
2021/07/21 04:21:34;;;;;;;6.57;3.75;;;23.90;96.70;;;;;;5057802;28;20043;-73
2021/07/21 04:24:10;;;;;;;7.00;3.60;;;23.90;96.70;;;;;;5038668;28;20053;-73
2021/07/21 04:26:42;;;;;;;4.40;2.45;;;24.00;96.70;;;;;;5042670;28;20206;-73
2021/07/21 04:29:14;;;;;;;7.70;3.70;;;24.00;96.70;;;;;;5054047;28;20124;-73
2021/07/21 04:31:45;;;;;;;7.45;3.85;;;23.90;96.70;;;;;;5041886;28;20131;-73
2021/07/21 04:34:17;;;;;;;6.47;3.75;;;23.90;96.70;;;;;;5040843;28;20064;-73
2021/07/21 04:36:51;;;;;;;5.82;4.00;;;23.90;96.70;;;;;;5063253;28;20041;-73
2021/07/21 04:39:29;;;;;;;9.68;4.60;;;23.90;96.70;;;;;;5062389;28;20063;-74
2021/07/21 04:42:19;;;;;;;7.78;4.15;;;23.90;96.70;;;;;;5044140;28;20055;-73
2021/07/21 04:44:50;;;;;;;9.27;4.85;;;23.80;96.70;;;;;;5042467;28;20521;-73
2021/07/21 04:47:22;;;;;;;10.35;5.25;;;23.90;96.70;;;;;;5058865;28;20028;-75
2021/07/21 04:49:53;;;;;;;8.45;5.15;;;23.80;96.70;;;;;;5059304;28;20149;-74
2021/07/21 04:52:25;;;;;;;8.10;6.13;;;23.70;96.70;;;;;;5037137;28;20047;-74
2021/07/21 04:54:55;;;;;;;7.63;6.25;;;23.60;96.70;;;;;;5056794;28;20146;-74
2021/07/21 04:57:24;;;;;;;11.05;7.20;;;23.60;96.70;;;;;;5038808;28;20545;-74
2021/07/21 05:00:09;;;;;;;8.70;6.53;;;23.50;96.70;;;;;;5026757;28;20494;-74
2021/07/21 05:02:54;;;;;;;7.55;6.72;;;23.50;96.70;;;;;;5028990;28;20395;-74
2021/07/21 05:05:23;;;;;;;11.77;6.93;;;23.60;96.70;;;;;;5059798;28;20036;-74
2021/07/21 05:08:00;;;;;;;7.00;6.15;;;23.60;96.70;;;;;;5040449;28;20094;-74
2021/07/21 05:10:34;;;;;;;11.15;6.07;;;23.60;96.70;;;;;;5041322;28;20125;-75
2021/07/21 05:13:03;;;;;;;8.85;5.30;;;23.70;96.70;;;;;;5060197;28;20067;-74
2021/07/21 05:15:36;;;;;;;10.35;5.43;;;23.80;96.70;;;;;;5037758;28;20136;-74
2021/07/21 05:18:11;;;;;;;10.95;5.28;;;23.80;96.70;;;;;;5058817;28;20148;-74
2021/07/21 05:20:44;;;;;;;7.47;4.90;;;23.80;96.70;;;;;;5059283;28;20722;-74
2021/07/21 05:23:14;;;;;;;6.95;5.00;;;23.70;96.70;;;;;;5045192;28;20075;-74
2021/07/21 05:25:56;;;;;;;7.00;4.60;;;23.70;96.70;;;;;;5037915;28;20044;-73
2021/07/21 05:28:43;;;;;;;8.13;3.67;;;23.60;96.70;;;;;;5054400;28;20117;-73
2021/07/21 05:31:29;;;;;;;;;;;23.60;96.70;;;;;;5057616;28;20064;-74
2021/07/21 05:34:16;;;;;;;6.82;3.63;;;23.60;96.70;;;;;;5059131;28;19931;-73
2021/07/21 05:36:45;;;;;;;6.25;3.92;;;23.60;96.70;;;;;;5042232;28;20360;-74
2021/07/21 05:39:25;;;;;;;6.18;3.67;;;23.60;96.70;;;;;;5056694;28;20513;-73
2021/07/21 05:41:56;;;;;;;6.15;3.38;;;23.60;96.70;;;;;;5043780;28;20044;-73
2021/07/21 05:44:28;;;;;;;6.78;3.63;;;23.70;96.70;;;;;;5047674;28;20037;-73
2021/07/21 05:46:58;;;;;;;7.50;3.33;;;23.70;96.70;;;;;;5061054;28;20434;-73
2021/07/21 05:49:27;;;;;;;6.05;3.15;;;23.80;96.70;;;;;;5047451;28;20041;-76
2021/07/21 05:52:05;;;;;;;5.75;3.35;;;23.90;96.70;;;;;;5047836;28;20571;-74
2021/07/21 05:54:39;;;;;;;6.80;3.50;;;23.90;96.70;;;;;;5063905;28;20039;-76
2021/07/21 05:57:12;;;;;;;6.72;3.60;;;23.90;96.70;;;;;;5064865;28;20656;-76
2021/07/21 06:00:03;;;;;;;9.13;3.40;;;23.90;96.70;;;;;;5048907;28;20058;-81
2021/07/21 06:02:42;;;;;;;6.57;3.42;;;24.00;96.70;;;;;;5064067;28;20052;-76
2021/07/21 06:05:16;;;;;;;7.28;3.55;;;24.10;96.70;;;;;;5026962;28;20126;-76
2021/07/21 06:08:09;;;;;;;7.40;3.35;;;24.20;96.70;;;;;;5040952;28;20500;-78
2021/07/21 06:10:52;;;;;;;6.57;3.72;;;24.30;96.70;;;;;;5027568;28;20036;-76
2021/07/21 06:13:25;;;;;;;6.07;4.45;;;24.30;96.70;;;;;;5041847;28;20471;-74
2021/07/21 06:16:03;;;;;;;7.00;3.83;;;24.30;96.70;;;;;;5066667;28;20052;-74
2021/07/21 06:18:35;;;;;;;8.13;3.78;;;24.40;96.70;;;;;;5039533;28;20099;-74
2021/07/21 06:21:04;;;;;;;6.90;4.20;;;24.40;96.70;;;;;;5040659;28;20431;-74
2021/07/21 06:23:34;;;;;;;8.70;4.22;;;24.50;96.70;;;;;;5031181;28;20119;-74
2021/07/21 06:26:03;;;;;;;8.38;4.40;;;24.50;96.70;;;;;;5041116;28;20049;-74
2021/07/21 06:28:53;;;;;;;9.57;4.45;;;24.60;96.70;;;;;;5032466;28;20049;-75
2021/07/21 06:31:22;;;;;;;9.20;4.97;;;24.60;96.70;;;;;;5039566;28;20044;-75
2021/07/21 06:33:52;;;;;;;7.65;4.50;;;24.70;96.70;;;;;;5044382;28;20041;-75
2021/07/21 06:36:20;;;;;;;8.02;5.18;;;24.80;96.70;;;;;;5034106;28;20399;-74
2021/07/21 06:38:50;;;;;;;8.50;4.70;;;24.80;96.70;;;;;;5043330;28;20049;-75
2021/07/21 06:41:28;;;;;;;11.10;6.07;;;24.90;96.70;;;;;;5041184;28;20437;-74
2021/07/21 06:44:00;;;;;;;7.10;4.82;;;25.00;96.70;;;;;;5041141;28;20069;-74
2021/07/21 06:46:47;;;;;;;8.65;5.07;;;25.00;96.70;;;;;;5037080;28;20063;-75
2021/07/21 06:49:26;;;;;;;10.10;5.15;;;25.10;96.70;;;;;;5042786;28;20037;-75
2021/07/21 06:51:55;;;;;;;10.88;5.82;;;25.20;96.70;;;;;;5040875;28;20486;-75
2021/07/21 06:54:28;;;;;;;9.32;5.88;;;25.10;96.70;;;;;;5043295;28;20043;-75
2021/07/21 06:57:15;;;;;;;9.65;6.65;;;25.20;96.70;;;;;;5039767;28;20064;-74
2021/07/21 06:59:47;;;;;;;9.30;6.38;;;25.20;96.70;;;;;;5044190;28;20095;-75
2021/07/21 07:02:45;;;;;;;9.55;5.88;;;25.30;96.70;;;;;;5044575;28;20037;-74
2021/07/21 07:05:36;;;;;;;7.97;5.93;;;25.40;96.70;;;;;;5036593;28;20526;-74
2021/07/21 07:08:27;;;;;;;9.07;6.15;;;25.40;96.70;;;;;;5023646;28;20099;-74
2021/07/21 07:11:18;;;;;;;10.88;6.15;;;25.50;96.70;;;;;;5039617;28;20175;-74
2021/07/21 07:13:46;;;;;;;11.00;6.03;;;25.60;96.70;;;;;;5042029;28;20532;-74
2021/07/21 07:16:15;;;;;;;10.30;5.80;;;25.80;96.70;;;;;;5037361;28;20053;-75
2021/07/21 07:18:44;;;;;;;8.50;6.03;;;25.90;96.70;;;;;;5038090;28;20514;-74
2021/07/21 07:21:12;;;;;;;7.93;5.50;;;26.00;96.70;;;;;;5035461;28;20512;-75
2021/07/21 07:23:40;;;;;;;10.68;6.45;;;25.90;96.70;;;;;;5048849;28;20849;-74
2021/07/21 07:26:08;;;;;;;8.52;5.60;;;25.90;96.70;;;;;;5044537;28;20417;-74
2021/07/21 07:28:37;;;;;;;13.15;6.50;;;25.90;96.70;;;;;;5042616;28;20033;-75
2021/07/21 07:31:05;;;;;;;10.40;6.07;;;26.00;96.70;;;;;;5042697;28;20521;-74
2021/07/21 07:33:35;;;;;;;8.23;5.85;;;26.20;96.70;;;;;;5044054;28;20032;-75
2021/07/21 07:36:04;;;;;;;11.50;6.50;;;26.30;96.70;;;;;;5042324;28;20049;-74
2021/07/21 07:38:32;;;;;;;9.85;6.95;;;26.30;96.70;;;;;;5043401;28;20041;-75
2021/07/21 07:41:01;;;;;;;13.25;7.25;;;26.40;96.70;;;;;;5041328;28;20042;-75
2021/07/21 07:43:29;;;;;;;14.38;7.78;;;26.40;96.70;;;;;;5034454;28;20040;-75
2021/07/21 07:45:57;;;;;;;12.10;7.38;;;26.40;96.70;;;;;;5045229;28;20045;-75
2021/07/21 07:48:26;;;;;;;10.27;7.15;;;26.40;96.70;;;;;;5039282;28;20056;-74
2021/07/21 07:50:55;;;;;;;11.55;6.95;;;26.40;96.70;;;;;;5043053;28;20048;-74
2021/07/21 07:53:23;;;;;;;12.38;6.93;;;26.50;96.70;;;;;;5041424;28;20471;-74
2021/07/21 07:55:52;;;;;;;7.65;6.45;;;26.60;96.70;;;;;;5041116;28;20041;-75
2021/07/21 07:58:21;;;;;;;8.88;6.07;;;26.70;96.70;;;;;;5041969;28;20512;-75
2021/07/21 08:00:49;;;;;;;11.73;7.10;;;26.70;96.70;;;;;;5043774;28;20036;-74
2021/07/21 08:03:17;;;;;;;9.57;5.88;;;26.80;96.70;;;;;;5038063;28;20051;-74
2021/07/21 08:05:46;;;;;;;7.68;5.45;;;26.80;96.70;;;;;;5044986;28;20056;-75
2021/07/21 08:08:15;;;;;;;7.53;4.50;;;26.90;96.70;;;;;;5046165;28;20128;-74
2021/07/21 08:10:44;;;;;;;7.35;5.50;;;27.00;96.70;;;;;;5041546;28;20075;-75
2021/07/21 08:13:12;;;;;;;7.50;5.78;;;27.10;96.70;;;;;;5039378;28;20086;-75
2021/07/21 08:15:40;;;;;;;8.35;5.50;;;27.10;96.70;;;;;;5036184;28;20406;-75
2021/07/21 08:18:09;;;;;;;11.65;6.65;;;27.20;96.70;;;;;;5042471;28;20044;-75
2021/07/21 08:20:37;;;;;;;13.05;7.72;;;27.20;96.70;;;;;;5042073;28;20486;-76
2021/07/21 08:23:06;;;;;;;8.77;6.18;;;27.20;96.70;;;;;;5040169;28;20132;-75
2021/07/21 08:25:35;;;;;;;11.13;7.07;;;27.30;96.70;;;;;;5043245;28;20067;-77
2021/07/21 08:28:04;;;;;;;9.98;6.70;;;27.40;96.70;;;;;;5032497;28;20049;-74
2021/07/21 08:30:32;;;;;;;8.95;6.85;;;27.50;96.70;;;;;;5043545;28;20451;-74
2021/07/21 08:33:01;;;;;;;11.02;6.00;;;27.60;96.70;;;;;;5038203;28;20554;-74
2021/07/21 08:35:30;;;;;;;10.60;6.75;;;27.70;96.70;;;;;;5039560;28;20525;-74
2021/07/21 08:38:00;;;;;;;10.07;5.97;;;27.80;96.70;;;;;;5041722;28;20381;-75
2021/07/21 08:40:30;;;;;;;7.97;5.72;;;27.90;96.70;;;;;;5040555;28;20102;-74
2021/07/21 08:43:20;;;;;;;12.82;5.85;;;28.00;96.70;;;;;;5040858;28;20045;-74
2021/07/21 08:45:48;;;;;;;10.13;5.82;;;28.10;96.70;;;;;;5040710;28;20040;-74
2021/07/21 08:48:17;;;;;;;10.80;5.90;;;28.20;96.70;;;;;;5041507;28;20040;-74
2021/07/21 08:50:46;;;;;;;10.43;6.57;;;28.20;96.70;;;;;;5040342;28;20037;-74
2021/07/21 08:53:15;;;;;;;9.75;5.97;;;28.20;96.60;;;;;;5038763;28;20047;-74
2021/07/21 08:55:44;;;;;;;11.32;6.18;;;28.20;96.50;;;;;;5038155;28;20037;-73
2021/07/21 08:58:12;;;;;;;11.75;6.63;;;28.30;96.00;;;;;;5034933;28;20410;-75
2021/07/21 09:00:42;;;;;;;9.85;6.15;;;28.40;95.50;;;;;;5038642;28;20123;-74
2021/07/21 09:03:11;;;;;;;11.80;7.32;;;28.50;95.30;;;;;;5035978;28;20494;-74
2021/07/21 09:05:39;;;;;;;16.20;6.88;;;28.60;95.60;;;;;;5038265;28;20028;-74
2021/07/21 09:08:10;;;;;;;11.73;5.95;;;28.60;94.60;;;;;;5032061;28;20049;-74
2021/07/21 09:10:38;;;;;;;8.80;5.80;;;28.70;94.50;;;;;;5036589;28;20136;-75
2021/07/21 09:13:12;;;;;;;7.47;6.03;;;28.80;94.00;;;;;;5040537;28;20087;-74
2021/07/21 09:15:46;;;;;;;7.22;5.15;;;28.80;94.70;;;;;;5039411;28;20047;-75
2021/07/21 09:18:16;;;;;;;8.23;5.15;;;28.90;94.20;;;;;;5051159;28;20044;-75
2021/07/21 09:20:46;;;;;;;8.88;5.10;;;28.90;94.20;;;;;;5039318;28;20049;-75
2021/07/21 09:23:15;;;;;;;10.43;6.05;;;28.90;94.40;;;;;;5058587;28;20040;-75
2021/07/21 09:25:43;;;;;;;11.60;5.47;;;29.10;94.10;;;;;;5060083;28;20495;-74
2021/07/21 09:28:13;;;;;;;10.20;5.45;;;29.10;94.10;;;;;;5037982;28;20041;-75
2021/07/21 09:30:44;;;;;;;9.23;5.63;;;29.20;93.70;;;;;;5035201;28;20094;-75
2021/07/21 09:33:14;;;;;;;9.38;4.65;;;29.10;93.20;;;;;;5060131;28;20044;-75
2021/07/21 09:35:44;;;;;;;6.35;4.70;;;29.20;93.20;;;;;;5060865;28;20072;-75
2021/07/21 09:38:14;;;;;;;7.38;5.30;;;29.30;93.30;;;;;;5044321;28;20466;-74
2021/07/21 09:40:44;;;;;;;7.47;4.80;;;29.50;93.00;;;;;;5057269;28;20048;-74
2021/07/21 09:43:14;;;;;;;8.52;5.40;;;29.60;91.60;;;;;;5037048;28;20044;-75
2021/07/21 09:45:45;;;;;;;8.18;6.15;;;29.60;91.90;;;;;;5059951;28;20029;-74
2021/07/21 09:48:14;;;;;;;7.38;4.93;;;29.70;92.30;;;;;;5030766;28;20227;-74
2021/07/21 09:50:44;;;;;;;7.88;4.70;;;29.70;92.40;;;;;;5056000;28;20487;-76
2021/07/21 09:53:14;;;;;;;6.75;4.60;;;29.60;91.50;;;;;;5053731;28;20048;-77
2021/07/21 09:55:43;;;;;;;7.80;5.25;;;29.50;91.30;;;;;;5049550;28;20131;-77
2021/07/21 09:58:13;;;;;;;5.68;4.85;;;29.50;91.00;;;;;;5040679;28;20044;-76
2021/07/21 10:00:44;;;;;;;7.80;5.05;;;29.60;90.90;;;;;;5044491;28;20374;-75
2021/07/21 10:03:18;;;;;;;7.50;5.10;;;29.70;90.70;;;;;;5059512;28;20052;-75
2021/07/21 10:05:58;;;;;;;8.90;5.00;;;29.90;92.00;;;;;;5042842;28;20154;-75
2021/07/21 10:08:37;;;;;;;5.50;4.80;;;29.90;91.70;;;;;;5039649;28;20510;-73
2021/07/21 10:11:21;;;;;;;7.22;5.50;;;29.80;91.70;;;;;;5056238;28;20131;-73
2021/07/21 10:13:51;;;;;;;6.78;5.30;;;29.80;91.90;;;;;;5058832;28;20051;-72
2021/07/21 10:16:37;;;;;;;10.35;4.70;;;29.90;92.40;;;;;;5060763;28;20600;-73
2021/07/21 10:19:07;;;;;;;6.27;4.90;;;30.00;92.30;;;;;;5054308;28;20051;-73
2021/07/21 10:21:37;;;;;;;6.55;5.13;;;30.30;91.70;;;;;;5041255;28;20051;-72
2021/07/21 10:24:06;;;;;;;7.20;5.43;;;30.40;91.20;;;;;;5062593;28;20086;-74
2021/07/21 10:26:36;;;;;;;6.78;5.28;;;30.40;91.90;;;;;;5060950;28;20383;-73
2021/07/21 10:29:06;;;;;;;5.45;4.40;;;30.50;90.30;;;;;;5061772;28;20044;-73
2021/07/21 10:31:37;;;;;;;6.70;4.07;;;30.60;90.10;;;;;;5046330;28;20506;-73
2021/07/21 10:34:06;;;;;;;4.90;3.83;;;30.70;88.80;;;;;;5044782;28;20048;-73
2021/07/21 10:36:40;;;;;;;5.65;4.05;;;30.70;88.00;;;;;;5057370;28;20065;-74
2021/07/21 10:39:11;;;;;;;6.72;4.38;;;30.80;87.30;;;;;;5042804;28;20049;-73
2021/07/21 10:41:42;;;;;;;11.07;4.53;;;30.90;87.50;;;;;;5060047;28;20516;-72
2021/07/21 10:44:13;;;;;;;7.03;4.47;;;31.00;88.10;;;;;;5047838;28;20115;-73
2021/07/21 10:46:43;;;;;;;8.30;4.10;;;31.10;87.70;;;;;;5043828;28;20149;-73
2021/07/21 10:49:28;;;;;;;6.53;4.25;;;31.20;87.40;;;;;;5043743;28;20118;-73
2021/07/21 10:55:24;;;;;;;5.78;4.03;;;31.30;87.10;;;;;;5059276;28;20454;-73
2021/07/21 11:00:57;;;;;;;6.18;4.13;;;31.30;86.70;;;;;;5031753;28;20052;-73
2021/07/21 11:03:31;;;;;;;7.22;3.83;;;31.40;87.00;;;;;;5050298;28;20053;-74
2021/07/21 11:06:02;;;;;;;5.15;4.63;;;31.50;87.20;;;;;;5063522;28;20072;-73
2021/07/21 11:08:32;;;;;;;5.55;3.95;;;31.50;87.70;;;;;;5064260;28;20044;-73
2021/07/21 11:11:10;;;;;;;5.22;4.53;;;31.50;87.50;;;;;;5043766;28;20047;-73
2021/07/21 11:13:41;;;;;;;7.25;4.40;;;31.70;87.70;;;;;;5062893;28;20047;-73
2021/07/21 11:16:37;;;;;;;5.03;4.25;;;31.70;86.50;;;;;;5028506;28;20173;-73
2021/07/21 11:19:26;;;;;;;5.68;4.15;;;31.90;86.70;;;;;;5030030;28;20520;-73
2021/07/21 11:21:58;;;;;;;5.68;4.10;;;32.10;86.90;;;;;;5037421;28;20057;-74
2021/07/21 11:24:28;;;;;;;4.78;3.30;;;31.90;84.90;;;;;;5034883;28;20658;-72
2021/07/21 11:26:58;;;;;;;5.90;3.17;;;32.00;85.00;;;;;;5036391;28;20071;-73
2021/07/21 11:29:45;;;;;;;4.05;3.58;;;32.20;83.60;;;;;;5034734;28;20044;-73
2021/07/21 11:32:29;;;;;;;3.50;2.80;;;32.30;82.70;;;;;;5043535;28;20083;-73
2021/07/21 11:34:59;;;;;;;3.78;3.10;;;32.30;81.40;;;;;;5042479;28;20473;-73
2021/07/21 11:37:33;;;;;;;4.63;3.55;;;32.10;81.40;;;;;;5040296;28;20127;-73
2021/07/21 11:40:16;;;;;;;3.88;2.88;;;32.10;81.70;;;;;;5038620;28;20052;-74
2021/07/21 11:42:45;;;;;;;4.25;3.10;;;32.30;81.30;;;;;;5039449;28;20040;-74
2021/07/21 11:45:22;;;;;;;3.42;3.13;;;32.30;80.50;;;;;;5039068;28;20128;-73
2021/07/21 11:47:56;;;;;;;4.30;3.33;;;32.50;81.10;;;;;;5042061;28;20045;-73
2021/07/21 11:50:29;;;;;;;4.97;3.10;;;32.60;79.60;;;;;;5042668;28;20040;-73
2021/07/21 11:52:59;;;;;;;6.35;2.80;;;32.60;79.30;;;;;;5036714;28;20075;-72
2021/07/21 11:55:30;;;;;;;5.35;3.10;;;32.70;79.60;;;;;;5043028;28;20041;-74
2021/07/21 11:58:08;;;;;;;3.28;2.95;;;32.70;79.60;;;;;;5039636;28;20045;-73
2021/07/21 12:00:37;;;;;;;3.15;2.78;;;32.70;78.90;;;;;;5043195;28;20045;-73
2021/07/21 12:03:08;;;;;;;3.95;3.15;;;32.70;78.30;;;;;;5040835;28;20139;-73
2021/07/21 12:05:40;;;;;;;6.18;3.40;;;32.70;79.40;;;;;;5038552;28;20067;-73
2021/07/21 12:08:23;;;;;;;6.72;3.83;;;32.70;79.10;;;;;;5037337;28;20532;-73
2021/07/21 12:10:52;;;;;;;4.57;2.75;;;32.60;78.70;;;;;;5040511;28;20530;-74
2021/07/21 12:13:20;;;;;;;5.25;3.33;;;32.60;78.40;;;;;;5026716;28;20111;-74
2021/07/21 12:15:58;;;;;;;3.42;2.90;;;32.70;79.90;;;;;;5039730;28;20461;-74
2021/07/21 12:18:27;;;;;;;3.70;3.20;;;32.60;79.10;;;;;;5051248;28;20584;-73
2021/07/21 12:21:06;;;;;;;6.80;3.60;;;32.80;80.20;;;;;;5064362;28;20131;-73
2021/07/21 12:23:34;;;;;;;4.15;3.63;;;32.90;79.80;;;;;;5041581;28;20396;-73
2021/07/21 12:26:07;;;;;;;4.07;3.50;;;32.80;80.70;;;;;;5058805;28;20048;-73
2021/07/21 12:28:36;;;;;;;5.82;3.63;;;32.80;80.90;;;;;;5060062;28;20090;-73
2021/07/21 12:31:04;;;;;;;5.97;3.40;;;32.70;80.10;;;;;;5024272;28;20036;-73
2021/07/21 12:33:33;;;;;;;4.15;3.45;;;32.70;81.20;;;;;;5057347;28;20883;-73
2021/07/21 12:36:10;;;;;;;3.75;3.15;;;32.70;80.70;;;;;;5027382;28;20310;-73
2021/07/21 12:38:40;;;;;;;5.35;3.45;;;32.80;80.00;;;;;;5060594;28;20074;-73
2021/07/21 12:41:11;;;;;;;4.38;3.25;;;32.80;80.40;;;;;;5057791;28;20041;-73
2021/07/21 12:43:39;;;;;;;5.72;3.50;;;32.60;80.30;;;;;;5039802;28;20066;-73
2021/07/21 12:46:17;;;;;;;6.65;3.38;;;32.60;80.20;;;;;;5062418;28;20056;-74
2021/07/21 12:48:46;;;;;;;5.95;3.35;;;32.60;80.10;;;;;;5042314;28;20052;-73
2021/07/21 12:51:17;;;;;;;3.90;3.10;;;32.70;80.20;;;;;;5026935;28;20471;-73
2021/07/21 12:53:47;;;;;;;5.10;2.85;;;32.70;79.90;;;;;;5059183;28;20041;-72
2021/07/21 12:56:15;;;;;;;4.15;3.20;;;32.60;79.50;;;;;;5060720;28;20040;-72
2021/07/21 12:58:44;;;;;;;5.00;3.38;;;32.60;79.10;;;;;;5040717;28;20037;-73
2021/07/21 13:01:23;;;;;;;3.35;3.05;;;32.50;79.60;;;;;;5043337;28;20059;-73
2021/07/21 13:03:53;;;;;;;6.32;2.97;;;32.50;79.50;;;;;;5058899;28;20040;-74
2021/07/21 13:06:27;;;;;;;4.88;3.05;;;32.60;79.60;;;;;;5058058;28;20499;-73
2021/07/21 13:08:56;;;;;;;4.97;3.50;;;32.60;79.50;;;;;;5045479;28;20520;-73
2021/07/21 13:11:28;;;;;;;5.90;3.13;;;32.70;80.20;;;;;;5058344;28;20540;-73
2021/07/21 13:14:00;;;;;;;5.32;3.70;;;33.00;79.20;;;;;;5063178;28;20548;-74
2021/07/21 13:16:30;;;;;;;5.28;3.67;;;33.10;79.20;;;;;;5038958;28;20044;-73
2021/07/21 13:19:00;;;;;;;5.78;3.83;;;33.00;78.60;;;;;;5057143;28;20306;-73
2021/07/21 13:21:36;;;;;;;6.68;3.58;;;33.00;78.70;;;;;;5040875;28;20063;-73
2021/07/21 13:24:18;;;;;;;6.17;4.00;;;33.10;78.60;;;;;;5041968;28;20036;-73
2021/07/21 13:26:55;;;;;;;7.05;4.43;;;33.20;78.60;;;;;;5057203;28;20444;-74
2021/07/21 13:29:27;;;;;;;5.85;4.10;;;33.30;77.40;;;;;;5060334;28;20048;-72
2021/07/21 13:31:56;;;;;;;5.57;3.92;;;33.40;76.50;;;;;;5056613;28;20502;-74
2021/07/21 13:34:30;;;;;;;4.65;3.22;;;33.40;76.20;;;;;;5060964;28;20166;-74
2021/07/21 13:37:02;;;;;;;5.10;3.63;;;33.50;75.90;;;;;;5043162;28;20548;-72